sensor_id;sensor_type;location;lat;lon;timestamp;temperature;humidity
72604;DHT22;60645;56.968;24.196;2023-02-28T00:01:30;0.00;87.70
72604;DHT22;60645;56.968;24.196;2023-02-28T00:03:58;0.30;87.70
72604;DHT22;60645;56.968;24.196;2023-02-28T00:06:25;0.20;87.90
72604;DHT22;60645;56.968;24.196;2023-02-28T00:08:52;0.00;88.20
72604;DHT22;60645;56.968;24.196;2023-02-28T00:11:19;0.20;88.20
72604;DHT22;60645;56.968;24.196;2023-02-28T00:13:47;0.10;88.60
72604;DHT22;60645;56.968;24.196;2023-02-28T00:16:20;0.00;88.70
72604;DHT22;60645;56.968;24.196;2023-02-28T00:18:47;0.10;88.90
72604;DHT22;60645;56.968;24.196;2023-02-28T00:21:15;0.00;89.00
72604;DHT22;60645;56.968;24.196;2023-02-28T00:23:43;-0.10;89.20
72604;DHT22;60645;56.968;24.196;2023-02-28T00:26:10;-0.10;89.50
72604;DHT22;60645;56.968;24.196;2023-02-28T00:28:37;-0.10;89.90
72604;DHT22;60645;56.968;24.196;2023-02-28T00:31:04;-0.20;90.00
72604;DHT22;60645;56.968;24.196;2023-02-28T00:33:31;-0.20;90.40
72604;DHT22;60645;56.968;24.196;2023-02-28T00:36:09;-0.30;90.60
72604;DHT22;60645;56.968;24.196;2023-02-28T00:38:38;-0.30;91.10
72604;DHT22;60645;56.968;24.196;2023-02-28T00:41:07;-0.50;91.20
72604;DHT22;60645;56.968;24.196;2023-02-28T00:43:35;-0.60;91.40
72604;DHT22;60645;56.968;24.196;2023-02-28T00:46:03;-0.60;91.40
72604;DHT22;60645;56.968;24.196;2023-02-28T00:48:31;-0.60;91.70
72604;DHT22;60645;56.968;24.196;2023-02-28T00:50:58;-0.60;91.80
72604;DHT22;60645;56.968;24.196;2023-02-28T00:53:25;-0.70;91.90
72604;DHT22;60645;56.968;24.196;2023-02-28T00:55:52;-0.80;92.30
72604;DHT22;60645;56.968;24.196;2023-02-28T00:58:19;-0.80;92.60
72604;DHT22;60645;56.968;24.196;2023-02-28T01:00:46;-0.70;92.30
72604;DHT22;60645;56.968;24.196;2023-02-28T01:03:17;-0.60;92.30
72604;DHT22;60645;56.968;24.196;2023-02-28T01:05:45;-0.70;92.40
72604;DHT22;60645;56.968;24.196;2023-02-28T01:08:13;-0.80;92.50
72604;DHT22;60645;56.968;24.196;2023-02-28T01:10:41;-0.90;92.50
72604;DHT22;60645;56.968;24.196;2023-02-28T01:13:08;-0.80;92.60
72604;DHT22;60645;56.968;24.196;2023-02-28T01:15:35;-0.70;92.50
72604;DHT22;60645;56.968;24.196;2023-02-28T01:18:02;-0.80;92.70
72604;DHT22;60645;56.968;24.196;2023-02-28T01:20:29;-0.70;92.50
72604;DHT22;60645;56.968;24.196;2023-02-28T01:22:56;-0.70;92.70
72604;DHT22;60645;56.968;24.196;2023-02-28T01:25:23;-1.00;92.70
72604;DHT22;60645;56.968;24.196;2023-02-28T01:27:50;-1.00;92.90
72604;DHT22;60645;56.968;24.196;2023-02-28T01:30:18;-1.00;93.10
72604;DHT22;60645;56.968;24.196;2023-02-28T01:32:45;-0.80;93.20
72604;DHT22;60645;56.968;24.196;2023-02-28T01:35:12;-0.80;93.30
72604;DHT22;60645;56.968;24.196;2023-02-28T01:37:39;-1.00;93.20
72604;DHT22;60645;56.968;24.196;2023-02-28T01:40:07;-1.00;93.40
72604;DHT22;60645;56.968;24.196;2023-02-28T01:42:34;-1.20;93.30
72604;DHT22;60645;56.968;24.196;2023-02-28T01:45:27;-1.00;93.40
72604;DHT22;60645;56.968;24.196;2023-02-28T01:48:02;-1.10;93.60
72604;DHT22;60645;56.968;24.196;2023-02-28T01:50:34;-0.90;93.90
72604;DHT22;60645;56.968;24.196;2023-02-28T01:53:06;-1.10;93.80
72604;DHT22;60645;56.968;24.196;2023-02-28T01:55:33;-1.20;93.90
72604;DHT22;60645;56.968;24.196;2023-02-28T01:58:03;-1.00;93.80
72604;DHT22;60645;56.968;24.196;2023-02-28T02:00:31;-1.00;93.90
72604;DHT22;60645;56.968;24.196;2023-02-28T02:03:00;-1.10;94.10
72604;DHT22;60645;56.968;24.196;2023-02-28T02:05:29;-1.20;94.30
72604;DHT22;60645;56.968;24.196;2023-02-28T02:08:06;-1.00;94.40
72604;DHT22;60645;56.968;24.196;2023-02-28T02:10:44;-0.80;94.50
72604;DHT22;60645;56.968;24.196;2023-02-28T02:13:55;-0.90;94.60
72604;DHT22;60645;56.968;24.196;2023-02-28T02:19:17;-1.00;94.30
72604;DHT22;60645;56.968;24.196;2023-02-28T02:25:18;-0.80;95.30
72604;DHT22;60645;56.968;24.196;2023-02-28T02:27:57;-0.50;95.40
72604;DHT22;60645;56.968;24.196;2023-02-28T02:36:21;-0.60;95.60
72604;DHT22;60645;56.968;24.196;2023-02-28T02:39:09;-0.70;95.60
72604;DHT22;60645;56.968;24.196;2023-02-28T02:44:22;-0.60;95.80
72604;DHT22;60645;56.968;24.196;2023-02-28T02:46:52;-0.40;95.90
72604;DHT22;60645;56.968;24.196;2023-02-28T02:49:24;-0.30;95.70
72604;DHT22;60645;56.968;24.196;2023-02-28T02:51:53;-0.50;95.60
72604;DHT22;60645;56.968;24.196;2023-02-28T02:54:31;-0.40;95.90
72604;DHT22;60645;56.968;24.196;2023-02-28T02:57:04;-0.30;95.90
72604;DHT22;60645;56.968;24.196;2023-02-28T02:59:33;-0.30;96.10
72604;DHT22;60645;56.968;24.196;2023-02-28T03:02:04;-0.30;96.00
72604;DHT22;60645;56.968;24.196;2023-02-28T03:04:38;-0.40;96.00
72604;DHT22;60645;56.968;24.196;2023-02-28T03:07:06;-0.50;96.10
72604;DHT22;60645;56.968;24.196;2023-02-28T03:09:34;-0.20;96.00
72604;DHT22;60645;56.968;24.196;2023-02-28T03:12:02;-0.30;95.90
72604;DHT22;60645;56.968;24.196;2023-02-28T03:14:56;0.00;95.80
72604;DHT22;60645;56.968;24.196;2023-02-28T03:18:04;0.00;95.70
72604;DHT22;60645;56.968;24.196;2023-02-28T03:20:53;0.10;95.30
72604;DHT22;60645;56.968;24.196;2023-02-28T03:24:11;0.20;95.10
72604;DHT22;60645;56.968;24.196;2023-02-28T03:26:26;0.20;95.00
72604;DHT22;60645;56.968;24.196;2023-02-28T03:29:04;0.50;94.90
72604;DHT22;60645;56.968;24.196;2023-02-28T03:31:35;0.40;94.90
72604;DHT22;60645;56.968;24.196;2023-02-28T03:34:34;0.40;95.20
72604;DHT22;60645;56.968;24.196;2023-02-28T03:37:07;0.20;95.20
72604;DHT22;60645;56.968;24.196;2023-02-28T03:39:40;0.70;95.20
72604;DHT22;60645;56.968;24.196;2023-02-28T03:42:20;0.40;95.20
72604;DHT22;60645;56.968;24.196;2023-02-28T03:44:52;0.50;94.90
72604;DHT22;60645;56.968;24.196;2023-02-28T03:47:25;0.50;95.20
72604;DHT22;60645;56.968;24.196;2023-02-28T03:50:07;0.60;95.40
72604;DHT22;60645;56.968;24.196;2023-02-28T03:52:45;0.50;95.40
72604;DHT22;60645;56.968;24.196;2023-02-28T03:55:14;0.50;95.30
72604;DHT22;60645;56.968;24.196;2023-02-28T04:00:34;0.50;95.30
72604;DHT22;60645;56.968;24.196;2023-02-28T04:03:04;0.60;95.10
72604;DHT22;60645;56.968;24.196;2023-02-28T04:05:32;0.70;95.20
72604;DHT22;60645;56.968;24.196;2023-02-28T04:08:07;1.00;95.40
72604;DHT22;60645;56.968;24.196;2023-02-28T04:10:34;0.70;95.40
72604;DHT22;60645;56.968;24.196;2023-02-28T04:13:01;0.70;95.40
72604;DHT22;60645;56.968;24.196;2023-02-28T04:15:28;0.60;95.60
72604;DHT22;60645;56.968;24.196;2023-02-28T04:17:55;0.50;95.60
72604;DHT22;60645;56.968;24.196;2023-02-28T04:20:22;0.60;95.80
72604;DHT22;60645;56.968;24.196;2023-02-28T04:22:49;0.60;96.00
72604;DHT22;60645;56.968;24.196;2023-02-28T04:25:15;0.40;96.10
72604;DHT22;60645;56.968;24.196;2023-02-28T04:27:42;0.50;96.40
72604;DHT22;60645;56.968;24.196;2023-02-28T04:30:11;0.40;96.30
72604;DHT22;60645;56.968;24.196;2023-02-28T04:32:39;0.40;96.40
72604;DHT22;60645;56.968;24.196;2023-02-28T04:35:06;0.30;96.70
72604;DHT22;60645;56.968;24.196;2023-02-28T04:37:33;0.30;96.60
72604;DHT22;60645;56.968;24.196;2023-02-28T04:40:01;0.20;97.00
72604;DHT22;60645;56.968;24.196;2023-02-28T04:42:29;0.40;97.00
72604;DHT22;60645;56.968;24.196;2023-02-28T04:45:03;0.40;97.40
72604;DHT22;60645;56.968;24.196;2023-02-28T04:47:30;0.40;97.50
72604;DHT22;60645;56.968;24.196;2023-02-28T04:49:57;0.50;97.50
72604;DHT22;60645;56.968;24.196;2023-02-28T04:52:24;0.60;97.50
72604;DHT22;60645;56.968;24.196;2023-02-28T04:54:53;0.80;97.10
72604;DHT22;60645;56.968;24.196;2023-02-28T04:57:21;0.90;96.90
72604;DHT22;60645;56.968;24.196;2023-02-28T04:59:48;1.00;96.60
72604;DHT22;60645;56.968;24.196;2023-02-28T05:02:15;1.20;96.40
72604;DHT22;60645;56.968;24.196;2023-02-28T05:04:42;1.00;96.30
72604;DHT22;60645;56.968;24.196;2023-02-28T05:07:09;1.10;96.10
72604;DHT22;60645;56.968;24.196;2023-02-28T05:09:36;1.40;96.00
72604;DHT22;60645;56.968;24.196;2023-02-28T05:12:03;1.20;95.90
72604;DHT22;60645;56.968;24.196;2023-02-28T05:14:30;1.30;96.00
72604;DHT22;60645;56.968;24.196;2023-02-28T05:16:57;1.40;95.90
72604;DHT22;60645;56.968;24.196;2023-02-28T05:19:24;1.30;96.20
72604;DHT22;60645;56.968;24.196;2023-02-28T05:21:53;1.10;96.40
72604;DHT22;60645;56.968;24.196;2023-02-28T05:24:20;1.30;96.40
72604;DHT22;60645;56.968;24.196;2023-02-28T05:26:52;1.50;96.00
72604;DHT22;60645;56.968;24.196;2023-02-28T05:29:19;1.20;96.10
72604;DHT22;60645;56.968;24.196;2023-02-28T05:31:46;1.40;96.30
72604;DHT22;60645;56.968;24.196;2023-02-28T05:34:14;1.40;96.20
72604;DHT22;60645;56.968;24.196;2023-02-28T05:36:43;1.20;96.10
72604;DHT22;60645;56.968;24.196;2023-02-28T05:39:10;1.50;96.40
72604;DHT22;60645;56.968;24.196;2023-02-28T05:41:40;1.50;96.10
72604;DHT22;60645;56.968;24.196;2023-02-28T05:44:08;1.50;96.20
72604;DHT22;60645;56.968;24.196;2023-02-28T05:46:35;1.60;96.10
72604;DHT22;60645;56.968;24.196;2023-02-28T05:49:03;1.60;95.90
72604;DHT22;60645;56.968;24.196;2023-02-28T05:51:31;1.80;95.80
72604;DHT22;60645;56.968;24.196;2023-02-28T05:53:59;1.90;95.70
72604;DHT22;60645;56.968;24.196;2023-02-28T05:56:27;1.80;95.50
72604;DHT22;60645;56.968;24.196;2023-02-28T05:58:56;1.60;95.90
72604;DHT22;60645;56.968;24.196;2023-02-28T06:01:41;1.80;95.60
72604;DHT22;60645;56.968;24.196;2023-02-28T06:04:09;1.80;95.50
72604;DHT22;60645;56.968;24.196;2023-02-28T06:06:54;2.00;95.20
72604;DHT22;60645;56.968;24.196;2023-02-28T06:09:24;2.00;95.60
72604;DHT22;60645;56.968;24.196;2023-02-28T06:11:51;2.20;94.70
72604;DHT22;60645;56.968;24.196;2023-02-28T06:14:19;3.00;93.10
72604;DHT22;60645;56.968;24.196;2023-02-28T06:16:47;3.40;90.50
72604;DHT22;60645;56.968;24.196;2023-02-28T06:19:14;3.60;89.70
72604;DHT22;60645;56.968;24.196;2023-02-28T06:21:42;3.90;88.50
72604;DHT22;60645;56.968;24.196;2023-02-28T06:24:09;3.90;88.80
72604;DHT22;60645;56.968;24.196;2023-02-28T06:26:36;4.40;86.50
72604;DHT22;60645;56.968;24.196;2023-02-28T06:29:03;4.70;85.60
72604;DHT22;60645;56.968;24.196;2023-02-28T06:31:30;4.70;85.70
72604;DHT22;60645;56.968;24.196;2023-02-28T06:33:58;5.20;83.70
72604;DHT22;60645;56.968;24.196;2023-02-28T06:36:25;5.60;82.30
72604;DHT22;60645;56.968;24.196;2023-02-28T06:38:52;5.70;81.80
72604;DHT22;60645;56.968;24.196;2023-02-28T06:41:23;6.40;79.60
72604;DHT22;60645;56.968;24.196;2023-02-28T06:43:51;6.90;78.10
72604;DHT22;60645;56.968;24.196;2023-02-28T06:46:18;7.30;76.80
72604;DHT22;60645;56.968;24.196;2023-02-28T06:48:45;7.90;75.00
72604;DHT22;60645;56.968;24.196;2023-02-28T06:51:16;7.60;74.90
72604;DHT22;60645;56.968;24.196;2023-02-28T06:53:43;7.60;74.80
72604;DHT22;60645;56.968;24.196;2023-02-28T06:56:13;7.90;74.10
72604;DHT22;60645;56.968;24.196;2023-02-28T06:58:41;7.60;74.20
72604;DHT22;60645;56.968;24.196;2023-02-28T07:01:09;7.50;75.40
72604;DHT22;60645;56.968;24.196;2023-02-28T07:03:36;7.30;75.40
72604;DHT22;60645;56.968;24.196;2023-02-28T07:06:04;7.40;75.60
72604;DHT22;60645;56.968;24.196;2023-02-28T07:08:32;7.80;73.70
72604;DHT22;60645;56.968;24.196;2023-02-28T07:10:59;7.90;73.40
72604;DHT22;60645;56.968;24.196;2023-02-28T07:13:26;7.90;73.40
72604;DHT22;60645;56.968;24.196;2023-02-28T07:16:11;8.30;72.30
72604;DHT22;60645;56.968;24.196;2023-02-28T07:18:38;8.30;72.00
72604;DHT22;60645;56.968;24.196;2023-02-28T07:21:08;8.60;71.10
72604;DHT22;60645;56.968;24.196;2023-02-28T07:23:36;8.80;70.20
72604;DHT22;60645;56.968;24.196;2023-02-28T07:26:12;8.50;71.20
72604;DHT22;60645;56.968;24.196;2023-02-28T07:28:45;8.70;70.60
72604;DHT22;60645;56.968;24.196;2023-02-28T07:31:13;9.20;69.30
72604;DHT22;60645;56.968;24.196;2023-02-28T07:33:41;9.70;67.40
72604;DHT22;60645;56.968;24.196;2023-02-28T07:36:11;9.70;67.30
72604;DHT22;60645;56.968;24.196;2023-02-28T07:38:46;10.10;66.20
72604;DHT22;60645;56.968;24.196;2023-02-28T07:41:19;10.50;64.40
72604;DHT22;60645;56.968;24.196;2023-02-28T07:43:46;10.20;64.60
72604;DHT22;60645;56.968;24.196;2023-02-28T07:46:15;10.10;65.50
72604;DHT22;60645;56.968;24.196;2023-02-28T07:48:43;10.00;65.80
72604;DHT22;60645;56.968;24.196;2023-02-28T07:51:10;10.20;65.00
72604;DHT22;60645;56.968;24.196;2023-02-28T07:53:37;10.10;65.00
72604;DHT22;60645;56.968;24.196;2023-02-28T07:56:05;10.50;64.10
72604;DHT22;60645;56.968;24.196;2023-02-28T07:58:32;10.30;64.20
72604;DHT22;60645;56.968;24.196;2023-02-28T08:01:06;10.20;64.80
72604;DHT22;60645;56.968;24.196;2023-02-28T08:03:33;10.00;65.30
72604;DHT22;60645;56.968;24.196;2023-02-28T08:06:00;10.30;64.40
72604;DHT22;60645;56.968;24.196;2023-02-28T08:08:28;10.30;64.50
72604;DHT22;60645;56.968;24.196;2023-02-28T08:10:59;10.00;64.60
72604;DHT22;60645;56.968;24.196;2023-02-28T08:13:28;10.00;65.40
72604;DHT22;60645;56.968;24.196;2023-02-28T08:15:56;10.40;63.90
72604;DHT22;60645;56.968;24.196;2023-02-28T08:18:23;10.30;64.20
72604;DHT22;60645;56.968;24.196;2023-02-28T08:20:50;11.00;62.60
72604;DHT22;60645;56.968;24.196;2023-02-28T08:23:17;11.40;61.60
72604;DHT22;60645;56.968;24.196;2023-02-28T08:25:45;11.50;61.50
72604;DHT22;60645;56.968;24.196;2023-02-28T08:28:19;11.30;61.30
72604;DHT22;60645;56.968;24.196;2023-02-28T08:30:46;11.90;60.20
72604;DHT22;60645;56.968;24.196;2023-02-28T08:33:12;12.40;59.30
72604;DHT22;60645;56.968;24.196;2023-02-28T08:35:39;13.50;56.00
72604;DHT22;60645;56.968;24.196;2023-02-28T08:38:06;14.50;54.10
72604;DHT22;60645;56.968;24.196;2023-02-28T08:40:33;15.10;52.50
72604;DHT22;60645;56.968;24.196;2023-02-28T08:43:00;15.80;49.80
72604;DHT22;60645;56.968;24.196;2023-02-28T08:45:27;15.70;49.80
72604;DHT22;60645;56.968;24.196;2023-02-28T08:47:54;16.10;49.60
72604;DHT22;60645;56.968;24.196;2023-02-28T08:50:21;16.70;48.00
72604;DHT22;60645;56.968;24.196;2023-02-28T08:52:48;16.70;48.20
72604;DHT22;60645;56.968;24.196;2023-02-28T08:55:15;16.90;47.10
72604;DHT22;60645;56.968;24.196;2023-02-28T08:57:42;17.00;47.50
72604;DHT22;60645;56.968;24.196;2023-02-28T09:00:09;17.00;47.20
72604;DHT22;60645;56.968;24.196;2023-02-28T09:02:36;17.50;46.30
72604;DHT22;60645;56.968;24.196;2023-02-28T09:05:04;17.90;45.20
72604;DHT22;60645;56.968;24.196;2023-02-28T09:07:31;18.20;44.60
72604;DHT22;60645;56.968;24.196;2023-02-28T09:09:57;17.10;46.20
72604;DHT22;60645;56.968;24.196;2023-02-28T09:12:25;17.40;46.10
72604;DHT22;60645;56.968;24.196;2023-02-28T09:14:52;18.40;44.20
72604;DHT22;60645;56.968;24.196;2023-02-28T09:17:19;18.90;43.20
72604;DHT22;60645;56.968;24.196;2023-02-28T09:19:47;18.50;43.90
72604;DHT22;60645;56.968;24.196;2023-02-28T09:22:14;18.80;43.20
72604;DHT22;60645;56.968;24.196;2023-02-28T09:24:41;19.10;42.70
72604;DHT22;60645;56.968;24.196;2023-02-28T09:27:08;18.50;43.50
72604;DHT22;60645;56.968;24.196;2023-02-28T09:29:36;18.80;43.10
72604;DHT22;60645;56.968;24.196;2023-02-28T09:32:03;18.80;43.20
72604;DHT22;60645;56.968;24.196;2023-02-28T09:34:32;18.70;43.00
72604;DHT22;60645;56.968;24.196;2023-02-28T09:36:59;18.40;43.60
72604;DHT22;60645;56.968;24.196;2023-02-28T09:39:26;18.80;43.10
72604;DHT22;60645;56.968;24.196;2023-02-28T09:41:54;19.00;42.50
72604;DHT22;60645;56.968;24.196;2023-02-28T09:46:49;19.30;42.00
72604;DHT22;60645;56.968;24.196;2023-02-28T09:49:19;19.40;41.90
72604;DHT22;60645;56.968;24.196;2023-02-28T09:51:56;18.80;42.70
72604;DHT22;60645;56.968;24.196;2023-02-28T09:54:27;18.70;42.70
72604;DHT22;60645;56.968;24.196;2023-02-28T09:59:33;19.60;41.50
72604;DHT22;60645;56.968;24.196;2023-02-28T10:04:59;19.20;42.00
72604;DHT22;60645;56.968;24.196;2023-02-28T10:09:55;16.80;45.60
72604;DHT22;60645;56.968;24.196;2023-02-28T10:12:25;13.50;52.70
72604;DHT22;60645;56.968;24.196;2023-02-28T10:14:52;13.40;52.70
72604;DHT22;60645;56.968;24.196;2023-02-28T10:17:25;12.50;55.90
72604;DHT22;60645;56.968;24.196;2023-02-28T10:20:01;11.10;59.10
72604;DHT22;60645;56.968;24.196;2023-02-28T10:25:23;9.70;63.80
72604;DHT22;60645;56.968;24.196;2023-02-28T10:27:53;9.30;65.40
72604;DHT22;60645;56.968;24.196;2023-02-28T10:30:20;9.20;66.00
72604;DHT22;60645;56.968;24.196;2023-02-28T10:32:51;9.30;66.10
72604;DHT22;60645;56.968;24.196;2023-02-28T10:35:25;9.40;65.40
72604;DHT22;60645;56.968;24.196;2023-02-28T10:37:57;9.70;64.70
72604;DHT22;60645;56.968;24.196;2023-02-28T10:56:14;10.00;64.40
72604;DHT22;60645;56.968;24.196;2023-02-28T10:59:00;10.10;63.80
72604;DHT22;60645;56.968;24.196;2023-02-28T11:06:46;10.00;63.90
72604;DHT22;60645;56.968;24.196;2023-02-28T11:09:56;9.70;64.90
72604;DHT22;60645;56.968;24.196;2023-02-28T11:12:36;9.60;65.50
72604;DHT22;60645;56.968;24.196;2023-02-28T11:15:21;9.70;65.10
72604;DHT22;60645;56.968;24.196;2023-02-28T11:18:18;9.50;66.20
72604;DHT22;60645;56.968;24.196;2023-02-28T11:20:51;9.30;67.20
72604;DHT22;60645;56.968;24.196;2023-02-28T11:23:20;9.50;66.50
72604;DHT22;60645;56.968;24.196;2023-02-28T11:25:52;9.60;66.20
72604;DHT22;60645;56.968;24.196;2023-02-28T11:28:28;9.70;65.70
72604;DHT22;60645;56.968;24.196;2023-02-28T11:31:04;9.70;65.90
72604;DHT22;60645;56.968;24.196;2023-02-28T11:36:18;9.50;65.80
72604;DHT22;60645;56.968;24.196;2023-02-28T11:38:48;9.50;66.10
72604;DHT22;60645;56.968;24.196;2023-02-28T11:50:01;9.00;67.70
72604;DHT22;60645;56.968;24.196;2023-02-28T11:54:53;9.20;67.10
72604;DHT22;60645;56.968;24.196;2023-02-28T12:17:02;9.00;66.80
72604;DHT22;60645;56.968;24.196;2023-02-28T12:28:13;8.50;68.60
72604;DHT22;60645;56.968;24.196;2023-02-28T12:30:50;8.60;68.40
72604;DHT22;60645;56.968;24.196;2023-02-28T12:33:21;8.70;68.10
72604;DHT22;60645;56.968;24.196;2023-02-28T12:35:56;9.00;66.80
72604;DHT22;60645;56.968;24.196;2023-02-28T12:38:48;9.00;66.60
72604;DHT22;60645;56.968;24.196;2023-02-28T12:41:22;8.80;67.00
72604;DHT22;60645;56.968;24.196;2023-02-28T12:44:02;9.60;65.00
72604;DHT22;60645;56.968;24.196;2023-02-28T12:46:37;10.60;61.90
72604;DHT22;60645;56.968;24.196;2023-02-28T12:49:12;11.60;59.60
72604;DHT22;60645;56.968;24.196;2023-02-28T12:51:39;13.30;54.80
72604;DHT22;60645;56.968;24.196;2023-02-28T12:54:12;13.90;53.10
72604;DHT22;60645;56.968;24.196;2023-02-28T12:56:44;14.40;51.80
72604;DHT22;60645;56.968;24.196;2023-02-28T12:59:19;15.20;50.00
72604;DHT22;60645;56.968;24.196;2023-02-28T13:01:52;16.00;48.30
72604;DHT22;60645;56.968;24.196;2023-02-28T13:04:36;16.60;46.90
72604;DHT22;60645;56.968;24.196;2023-02-28T13:09:41;13.90;51.50
72604;DHT22;60645;56.968;24.196;2023-02-28T13:12:15;11.80;57.00
72604;DHT22;60645;56.968;24.196;2023-02-28T13:14:43;10.20;61.60
72604;DHT22;60645;56.968;24.196;2023-02-28T13:17:12;9.70;63.30
72604;DHT22;60645;56.968;24.196;2023-02-28T13:22:41;8.60;67.20
72604;DHT22;60645;56.968;24.196;2023-02-28T13:28:10;8.20;68.60
72604;DHT22;60645;56.968;24.196;2023-02-28T13:33:31;8.20;69.00
72604;DHT22;60645;56.968;24.196;2023-02-28T13:36:22;7.80;69.80
72604;DHT22;60645;56.968;24.196;2023-02-28T13:38:51;8.00;70.20
72604;DHT22;60645;56.968;24.196;2023-02-28T13:41:40;8.00;70.00
72604;DHT22;60645;56.968;24.196;2023-02-28T13:52:02;7.90;70.00
72604;DHT22;60645;56.968;24.196;2023-02-28T14:05:43;7.60;71.40
72604;DHT22;60645;56.968;24.196;2023-02-28T14:08:21;7.60;71.60
72604;DHT22;60645;56.968;24.196;2023-02-28T14:11:02;7.30;71.80
72604;DHT22;60645;56.968;24.196;2023-02-28T14:14:02;7.20;72.70
72604;DHT22;60645;56.968;24.196;2023-02-28T14:16:44;7.30;72.90
72604;DHT22;60645;56.968;24.196;2023-02-28T14:19:24;7.10;73.20
72604;DHT22;60645;56.968;24.196;2023-02-28T14:28:23;6.80;74.30
72604;DHT22;60645;56.968;24.196;2023-02-28T14:31:10;6.70;74.60
72604;DHT22;60645;56.968;24.196;2023-02-28T14:36:32;6.60;75.00
72604;DHT22;60645;56.968;24.196;2023-02-28T14:39:05;6.70;75.40
72604;DHT22;60645;56.968;24.196;2023-02-28T14:41:37;6.60;75.50
72604;DHT22;60645;56.968;24.196;2023-02-28T14:44:24;6.30;76.40
72604;DHT22;60645;56.968;24.196;2023-02-28T14:46:57;6.10;77.30
72604;DHT22;60645;56.968;24.196;2023-02-28T14:49:27;6.10;77.50
72604;DHT22;60645;56.968;24.196;2023-02-28T14:54:30;5.90;77.80
72604;DHT22;60645;56.968;24.196;2023-02-28T14:56:57;5.70;78.20
72604;DHT22;60645;56.968;24.196;2023-02-28T14:59:27;5.50;78.70
72604;DHT22;60645;56.968;24.196;2023-02-28T15:02:19;5.50;79.20
72604;DHT22;60645;56.968;24.196;2023-02-28T15:05:00;5.50;79.30
72604;DHT22;60645;56.968;24.196;2023-02-28T15:07:28;5.40;79.60
72604;DHT22;60645;56.968;24.196;2023-02-28T15:13:05;5.30;80.00
72604;DHT22;60645;56.968;24.196;2023-02-28T15:21:02;5.30;80.10
72604;DHT22;60645;56.968;24.196;2023-02-28T15:23:30;5.20;80.00
72604;DHT22;60645;56.968;24.196;2023-02-28T15:25:58;5.10;80.30
72604;DHT22;60645;56.968;24.196;2023-02-28T15:28:27;5.20;80.40
72604;DHT22;60645;56.968;24.196;2023-02-28T15:31:03;4.80;80.60
72604;DHT22;60645;56.968;24.196;2023-02-28T15:33:56;4.90;81.00
72604;DHT22;60645;56.968;24.196;2023-02-28T15:36:29;4.90;81.40
72604;DHT22;60645;56.968;24.196;2023-02-28T15:38:57;4.70;82.00
72604;DHT22;60645;56.968;24.196;2023-02-28T15:41:41;4.60;82.40
72604;DHT22;60645;56.968;24.196;2023-02-28T15:44:26;4.60;82.80
72604;DHT22;60645;56.968;24.196;2023-02-28T15:46:57;4.60;83.40
72604;DHT22;60645;56.968;24.196;2023-02-28T15:49:25;4.30;83.50
72604;DHT22;60645;56.968;24.196;2023-02-28T15:51:53;4.20;84.00
72604;DHT22;60645;56.968;24.196;2023-02-28T15:54:32;4.30;84.20
72604;DHT22;60645;56.968;24.196;2023-02-28T15:57:15;4.30;84.40
72604;DHT22;60645;56.968;24.196;2023-02-28T15:59:50;4.30;84.70
72604;DHT22;60645;56.968;24.196;2023-02-28T16:02:21;4.20;85.10
72604;DHT22;60645;56.968;24.196;2023-02-28T16:07:40;4.20;85.10
72604;DHT22;60645;56.968;24.196;2023-02-28T16:10:10;4.20;85.30
72604;DHT22;60645;56.968;24.196;2023-02-28T16:12:39;4.00;85.30
72604;DHT22;60645;56.968;24.196;2023-02-28T16:15:14;4.00;85.70
72604;DHT22;60645;56.968;24.196;2023-02-28T16:17:43;4.10;85.70
72604;DHT22;60645;56.968;24.196;2023-02-28T16:20:23;4.00;85.60
72604;DHT22;60645;56.968;24.196;2023-02-28T16:22:51;3.90;85.30
72604;DHT22;60645;56.968;24.196;2023-02-28T16:25:40;3.80;85.40
72604;DHT22;60645;56.968;24.196;2023-02-28T16:28:24;3.80;85.60
72604;DHT22;60645;56.968;24.196;2023-02-28T16:30:52;4.10;85.70
72604;DHT22;60645;56.968;24.196;2023-02-28T16:33:20;3.90;85.80
72604;DHT22;60645;56.968;24.196;2023-02-28T16:35:47;3.80;86.30
72604;DHT22;60645;56.968;24.196;2023-02-28T16:38:13;3.60;86.40
72604;DHT22;60645;56.968;24.196;2023-02-28T16:40:40;3.80;86.30
72604;DHT22;60645;56.968;24.196;2023-02-28T16:43:13;3.90;86.30
72604;DHT22;60645;56.968;24.196;2023-02-28T16:45:42;3.70;86.40
72604;DHT22;60645;56.968;24.196;2023-02-28T16:48:15;3.50;86.60
72604;DHT22;60645;56.968;24.196;2023-02-28T16:50:43;3.60;86.80
72604;DHT22;60645;56.968;24.196;2023-02-28T16:53:12;3.60;86.80
72604;DHT22;60645;56.968;24.196;2023-02-28T16:55:40;3.60;86.90
72604;DHT22;60645;56.968;24.196;2023-02-28T16:58:14;3.60;86.70
72604;DHT22;60645;56.968;24.196;2023-02-28T17:00:41;3.70;86.60
72604;DHT22;60645;56.968;24.196;2023-02-28T17:03:25;3.80;86.20
72604;DHT22;60645;56.968;24.196;2023-02-28T17:06:00;3.70;85.90
72604;DHT22;60645;56.968;24.196;2023-02-28T17:08:27;3.80;85.90
72604;DHT22;60645;56.968;24.196;2023-02-28T17:10:56;3.90;85.90
72604;DHT22;60645;56.968;24.196;2023-02-28T17:13:23;3.70;86.30
72604;DHT22;60645;56.968;24.196;2023-02-28T17:15:50;3.60;86.20
72604;DHT22;60645;56.968;24.196;2023-02-28T17:18:18;3.70;86.30
72604;DHT22;60645;56.968;24.196;2023-02-28T17:20:46;3.70;86.20
72604;DHT22;60645;56.968;24.196;2023-02-28T17:23:13;3.40;86.40
72604;DHT22;60645;56.968;24.196;2023-02-28T17:25:40;3.40;86.60
72604;DHT22;60645;56.968;24.196;2023-02-28T17:28:08;3.60;86.80
72604;DHT22;60645;56.968;24.196;2023-02-28T17:30:35;3.40;86.80
72604;DHT22;60645;56.968;24.196;2023-02-28T17:33:03;3.60;86.80
72604;DHT22;60645;56.968;24.196;2023-02-28T17:35:31;3.30;86.90
72604;DHT22;60645;56.968;24.196;2023-02-28T17:37:58;3.60;86.90
72604;DHT22;60645;56.968;24.196;2023-02-28T17:40:25;3.60;87.20
72604;DHT22;60645;56.968;24.196;2023-02-28T17:42:51;3.40;87.20
72604;DHT22;60645;56.968;24.196;2023-02-28T17:45:19;3.40;87.40
72604;DHT22;60645;56.968;24.196;2023-02-28T17:47:48;3.40;88.00
72604;DHT22;60645;56.968;24.196;2023-02-28T17:50:19;3.20;88.20
72604;DHT22;60645;56.968;24.196;2023-02-28T17:52:46;3.30;88.00
72604;DHT22;60645;56.968;24.196;2023-02-28T17:55:13;3.40;88.00
72604;DHT22;60645;56.968;24.196;2023-02-28T17:57:40;3.20;88.20
72604;DHT22;60645;56.968;24.196;2023-02-28T18:00:17;3.30;88.40
72604;DHT22;60645;56.968;24.196;2023-02-28T18:02:44;3.10;88.60
72604;DHT22;60645;56.968;24.196;2023-02-28T18:05:11;3.00;88.80
72604;DHT22;60645;56.968;24.196;2023-02-28T18:07:39;3.10;88.90
72604;DHT22;60645;56.968;24.196;2023-02-28T18:10:18;2.90;88.90
72604;DHT22;60645;56.968;24.196;2023-02-28T18:12:47;3.10;88.70
72604;DHT22;60645;56.968;24.196;2023-02-28T18:15:15;3.00;89.00
72604;DHT22;60645;56.968;24.196;2023-02-28T18:17:43;3.10;88.90